EKFR weather

Freerslev
Capital Region, Denmark

Public forecast

Using degrees Celsius for public forecast. Weather courtesy of forecast.io.

METAR (pilot weather report)

Closest report is Copenhagen Roskilde Airport, 19.2 nm (35.5 km) SSW. Retrieved 2019/09/19 00:20 UTC (40 minutes ago):

EKRK 190020Z AUTO 25001KT 9999 NCD 05/04 Q1022

TAF (pilot weather forecast)

Forecast is more than 12 hours old.

Closest forecast is Copenhagen Kastrup Airport, 21.8 nm (40.4 km) SE. Retrieved 2019/09/18 00:31 UTC (1 day ago):

TAF EKCH 182318Z 1900/1924 29008KT 9999 SCT030